Time;durP1;ratioP1;P1;durP2;ratioP2;P2;SDS_P1;SDS_P2;PMS_P1;PMS_P2;Temp;Humidity;BMP_temperature;BMP_pressure;BME280_temperature;BME280_humidity;BME280_pressure;Samples;Min_cycle;Max_cycle;Signal;HPM_P1;HPM_P2
2023/05/12 08:06:33;;;;;;;13.43;10.77;;;;;;;13.78;100.00;101422.09;5068755;27;20192;-76
2023/05/12 08:08:58;;;;;;;11.00;10.00;;;;;;;13.83;100.00;101423.06;5065676;28;20025;-72
2023/05/12 08:11:24;;;;;;;9.70;8.90;;;;;;;13.88;100.00;101433.22;5068511;28;20033;-75
2023/05/12 08:13:53;;;;;;;9.63;8.73;;;;;;;13.91;100.00;101429.22;5067830;28;20123;-75
2023/05/12 08:16:18;;;;;;;9.75;8.80;;;;;;;13.91;100.00;101438.19;5067171;28;20073;-74
2023/05/12 08:18:46;;;;;;;9.25;8.32;;;;;;;13.87;100.00;101436.19;5064431;28;20032;-76
2023/05/12 08:21:12;;;;;;;8.85;7.88;;;;;;;13.87;100.00;101431.56;5066951;28;20447;-76
2023/05/12 08:23:37;;;;;;;8.43;7.60;;;;;;;13.96;100.00;101432.88;5067760;28;20067;-75
2023/05/12 08:26:03;;;;;;;8.35;7.07;;;;;;;14.02;100.00;101438.47;5067403;28;20119;-75
2023/05/12 08:28:30;;;;;;;7.93;7.20;;;;;;;14.08;100.00;101434.81;5068001;28;20451;-76
2023/05/12 08:30:56;;;;;;;7.88;7.15;;;;;;;14.13;100.00;101451.25;5068082;28;20468;-75
2023/05/12 08:33:22;;;;;;;9.32;6.75;;;;;;;14.17;100.00;101436.94;5068764;28;20040;-77
2023/05/12 08:35:51;;;;;;;7.25;6.63;;;;;;;14.26;100.00;101448.31;5066736;28;20395;-78
2023/05/12 08:38:17;;;;;;;8.43;6.28;;;;;;;14.36;100.00;101448.56;5100687;28;20115;-78
2023/05/12 08:41:09;;;;;;;7.15;6.45;;;;;;;14.49;100.00;101457.56;5066675;28;20183;-74
2023/05/12 08:43:51;;;;;;;6.30;5.80;;;;;;;14.54;100.00;101453.06;5067492;28;20123;-78
2023/05/12 08:46:16;;;;;;;;;;;;;;;14.63;100.00;101452.75;5067821;28;20086;-77
2023/05/12 08:48:45;;;;;;;5.38;4.47;;;;;;;14.61;100.00;101455.69;5068480;28;19912;-76
2023/05/12 08:51:12;;;;;;;5.63;4.90;;;;;;;14.61;100.00;101458.44;5065155;28;20064;-76
2023/05/12 08:53:39;;;;;;;5.30;4.80;;;;;;;14.68;100.00;101452.88;5064834;28;20036;-74
2023/05/12 08:56:06;;;;;;;6.57;4.50;;;;;;;14.77;100.00;101461.53;5068272;28;20113;-72
2023/05/12 08:58:32;;;;;;;5.07;3.92;;;;;;;14.81;100.00;101462.69;5067096;28;20046;-72
2023/05/12 09:00:59;;;;;;;6.15;4.15;;;;;;;14.84;100.00;101468.50;5062383;28;20045;-72
2023/05/12 09:03:27;;;;;;;6.53;3.90;;;;;;;14.92;100.00;101466.50;5068223;28;20025;-73
2023/05/12 09:05:54;;;;;;;4.20;3.72;;;;;;;14.93;100.00;101468.97;5067812;28;20055;-73
2023/05/12 09:08:20;;;;;;;8.00;3.53;;;;;;;14.97;100.00;101472.03;5066734;28;20032;-72
2023/05/12 09:10:47;;;;;;;4.47;3.60;;;;;;;15.00;100.00;101474.28;5065922;28;20483;-72
2023/05/12 09:13:18;;;;;;;4.57;3.33;;;;;;;15.01;100.00;101479.50;5067905;28;20608;-73
2023/05/12 09:15:46;;;;;;;3.70;3.40;;;;;;;15.03;100.00;101477.34;5066740;28;20104;-74
2023/05/12 09:18:11;;;;;;;5.70;3.83;;;;;;;15.02;100.00;101474.84;5052834;28;20049;-74
2023/05/12 09:20:37;;;;;;;5.75;3.47;;;;;;;15.13;100.00;101468.56;5053825;28;20501;-74
2023/05/12 09:23:31;;;;;;;3.63;3.33;;;;;;;15.22;100.00;101466.31;5054441;28;20076;-74
2023/05/12 09:26:02;;;;;;;4.07;3.00;;;;;;;15.20;100.00;101476.59;5052615;28;20070;-74
2023/05/12 09:28:37;;;;;;;4.72;3.28;;;;;;;15.23;100.00;101481.56;5050080;28;20029;-75
2023/05/12 09:31:23;;;;;;;3.85;3.08;;;;;;;15.21;100.00;101481.00;5036335;28;20067;-74
2023/05/12 09:33:51;;;;;;;5.28;2.97;;;;;;;15.26;100.00;101486.53;5034571;28;20030;-75
2023/05/12 09:36:18;;;;;;;4.10;3.38;;;;;;;15.38;100.00;101483.78;5034428;28;20036;-74
2023/05/12 09:38:44;;;;;;;3.50;3.20;;;;;;;15.41;100.00;101475.13;5034571;28;20033;-73
2023/05/12 09:41:09;;;;;;;6.00;2.80;;;;;;;15.60;100.00;101478.50;5034201;28;20465;-73
2023/05/12 09:43:35;;;;;;;4.07;3.03;;;;;;;15.71;100.00;101472.16;5035280;28;20060;-73
2023/05/12 09:46:04;;;;;;;3.70;3.25;;;;;;;15.71;100.00;101485.81;5054052;28;20029;-73
2023/05/12 09:48:31;;;;;;;3.97;3.00;;;;;;;15.80;100.00;101480.00;5049534;28;20116;-73
2023/05/12 09:50:57;;;;;;;4.95;2.97;;;;;;;15.83;100.00;101488.50;5032639;28;20045;-73
2023/05/12 09:53:22;;;;;;;6.28;2.90;;;;;;;15.87;100.00;101481.50;5033041;28;20025;-73
2023/05/12 09:55:51;;;;;;;4.05;2.78;;;;;;;15.94;100.00;101487.66;5033050;28;20037;-72
2023/05/12 09:58:18;;;;;;;5.00;2.90;;;;;;;15.97;100.00;101497.22;5047294;28;20085;-72
2023/05/12 10:00:44;;;;;;;3.05;2.85;;;;;;;16.00;100.00;101491.28;5048976;28;20037;-72
2023/05/12 10:03:16;;;;;;;5.40;2.45;;;;;;;16.07;100.00;101502.88;5050700;28;20029;-72
2023/05/12 10:05:52;;;;;;;3.78;2.60;;;;;;;16.07;100.00;101500.13;5045449;28;20055;-73
2023/05/12 10:08:26;;;;;;;2.83;2.30;;;;;;;16.08;100.00;101509.19;5041434;28;20079;-72
2023/05/12 10:10:54;;;;;;;5.15;2.33;;;;;;;16.12;100.00;101510.31;5046037;28;20041;-71
2023/05/12 10:13:21;;;;;;;4.35;2.53;;;;;;;16.24;100.00;101513.00;5033033;28;20029;-71
2023/05/12 10:15:47;;;;;;;4.47;2.35;;;;;;;16.29;100.00;101513.09;5034010;28;20084;-72
2023/05/12 10:18:14;;;;;;;2.97;2.17;;;;;;;16.41;100.00;101513.00;5048406;28;20041;-72
2023/05/12 10:20:43;;;;;;;3.00;2.33;;;;;;;16.46;100.00;101502.97;5044219;28;20037;-70
2023/05/12 10:23:11;;;;;;;3.08;2.60;;;;;;;16.56;100.00;101499.59;5053814;28;20475;-73
2023/05/12 10:25:40;;;;;;;4.18;2.60;;;;;;;16.63;100.00;101508.44;5047417;28;20460;-73
2023/05/12 10:28:05;;;;;;;3.15;2.40;;;;;;;16.70;100.00;101510.16;5051169;28;20357;-71
2023/05/12 10:30:32;;;;;;;4.53;2.60;;;;;;;16.75;100.00;101497.41;5052298;28;20037;-73
2023/05/12 10:32:58;;;;;;;4.30;2.50;;;;;;;16.84;100.00;101508.75;5047035;28;20053;-70
2023/05/12 10:35:34;;;;;;;5.10;2.40;;;;;;;16.83;100.00;101507.94;5059861;28;20429;-71
2023/05/12 10:38:02;;;;;;;3.55;2.20;;;;;;;16.83;95.78;101494.25;5045048;28;20040;-72
2023/05/12 10:40:28;;;;;;;4.97;2.55;;;;;;;16.86;100.00;101500.31;5047780;28;20443;-75
2023/05/12 10:42:57;;;;;;;5.72;2.63;;;;;;;16.94;100.00;101513.56;5033524;28;20111;-73
2023/05/12 10:45:23;;;;;;;3.83;2.47;;;;;;;17.04;100.00;101496.47;5033404;28;20025;-76
2023/05/12 10:47:48;;;;;;;3.55;2.67;;;;;;;17.09;98.55;101502.84;5033729;28;20376;-76
2023/05/12 10:50:13;;;;;;;2.85;2.45;;;;;;;17.09;100.00;101496.53;5036182;28;20231;-72
2023/05/12 10:52:52;;;;;;;5.30;2.20;;;;;;;17.22;100.00;101509.03;5052257;28;20051;-70
2023/05/12 10:55:30;;;;;;;3.70;2.00;;;;;;;17.38;90.24;101516.34;5051385;28;20037;-73
2023/05/12 10:58:05;;;;;;;2.83;1.83;;;;;;;17.54;84.12;101510.00;5050818;28;20349;-71
2023/05/12 11:00:42;;;;;;;5.70;1.83;;;;;;;17.63;86.96;101509.53;5050074;28;20031;-72
2023/05/12 11:03:13;;;;;;;4.97;2.03;;;;;;;17.66;82.14;101506.25;5050584;28;20484;-71
2023/05/12 11:05:38;;;;;;;2.13;1.80;;;;;;;17.57;77.18;101510.53;5052964;28;20041;-70
2023/05/12 11:08:04;;;;;;;4.60;2.28;;;;;;;17.45;86.58;101505.19;5052714;28;20032;-71
2023/05/12 11:10:29;;;;;;;3.88;2.17;;;;;;;17.49;88.02;101512.66;5052456;28;20033;-72
2023/05/12 11:12:55;;;;;;;3.55;2.17;;;;;;;17.52;89.19;101523.06;5051192;28;20029;-71
2023/05/12 11:15:21;;;;;;;6.47;2.40;;;;;;;17.45;87.59;101530.69;5050791;28;20319;-72
2023/05/12 11:17:46;;;;;;;3.50;3.20;;;;;;;17.32;97.40;101533.78;5052554;28;20029;-72
2023/05/12 11:20:22;;;;;;;4.68;3.22;;;;;;;17.28;100.00;101527.16;5043845;28;20040;-71
2023/05/12 11:22:47;;;;;;;3.42;2.45;;;;;;;17.32;85.65;101539.25;5033114;28;20026;-71
2023/05/12 11:25:13;;;;;;;4.72;2.35;;;;;;;17.34;85.74;101532.44;5032478;28;20030;-72
2023/05/12 11:27:44;;;;;;;4.72;3.00;;;;;;;17.31;89.60;101530.19;5033016;28;20429;-73
2023/05/12 11:30:10;;;;;;;5.45;3.65;;;;;;;17.23;91.88;101540.78;5036128;28;20094;-72
2023/05/12 11:32:35;;;;;;;6.53;3.45;;;;;;;17.11;97.47;101544.44;5050970;28;20456;-72
2023/05/12 11:35:15;;;;;;;4.10;3.40;;;;;;;17.07;100.00;101543.28;5051142;28;20036;-71
2023/05/12 11:37:42;;;;;;;6.55;3.45;;;;;;;17.26;100.00;101540.28;5045837;28;20124;-70
2023/05/12 11:40:12;;;;;;;6.88;3.08;;;;;;;17.29;98.38;101537.84;5047144;28;20085;-73
2023/05/12 11:42:40;;;;;;;6.15;3.25;;;;;;;17.34;93.68;101548.84;5031678;28;20040;-72
2023/05/12 11:45:06;;;;;;;6.00;3.55;;;;;;;17.40;83.18;101557.13;5047895;28;20028;-72
2023/05/12 11:47:31;;;;;;;4.55;3.33;;;;;;;17.39;82.08;101545.34;5044456;28;20067;-74
2023/05/12 11:49:56;;;;;;;5.43;3.10;;;;;;;17.45;91.24;101543.50;5048898;28;20053;-73
2023/05/12 11:52:23;;;;;;;4.47;3.30;;;;;;;17.54;90.32;101564.72;5052010;28;20079;-71
2023/05/12 11:54:56;;;;;;;4.90;3.33;;;;;;;17.61;83.02;101553.56;5050135;28;20091;-73
2023/05/12 11:57:29;;;;;;;8.60;3.10;;;;;;;17.72;84.96;101557.25;5051117;28;20156;-72
2023/05/12 12:00:06;;;;;;;2.85;2.53;;;;;;;17.81;81.20;101558.44;5037229;28;20169;-72
2023/05/12 12:02:32;;;;;;;3.15;2.60;;;;;;;18.03;86.03;101557.63;5047390;28;20143;-75
2023/05/12 12:04:58;;;;;;;5.57;2.90;;;;;;;18.18;77.53;101557.78;5050055;28;20057;-72
2023/05/12 12:07:32;;;;;;;5.53;2.70;;;;;;;18.19;76.05;101564.94;5050872;28;20127;-74
2023/05/12 12:09:57;;;;;;;7.63;2.50;;;;;;;18.20;75.49;101571.22;5050906;28;20479;-73
2023/05/12 12:12:23;;;;;;;5.60;3.15;;;;;;;18.18;72.21;101574.22;5050837;28;20035;-74
2023/05/12 12:14:48;;;;;;;7.80;3.30;;;;;;;18.24;72.32;101575.91;5049553;28;20079;-72
2023/05/12 12:17:14;;;;;;;4.15;2.90;;;;;;;18.26;74.37;101575.66;5051626;28;20029;-74
2023/05/12 12:19:39;;;;;;;5.85;2.50;;;;;;;18.36;75.04;101581.25;5051917;28;20033;-72
2023/05/12 12:22:05;;;;;;;11.23;2.90;;;;;;;18.35;76.63;101581.50;5050958;28;20040;-74
2023/05/12 12:24:30;;;;;;;4.25;2.60;;;;;;;18.19;68.89;101586.84;5047477;28;20025;-71
2023/05/12 12:26:55;;;;;;;5.57;2.55;;;;;;;18.08;72.92;101596.00;5050635;28;20082;-73
2023/05/12 12:29:22;;;;;;;13.38;2.78;;;;;;;18.19;70.13;101592.31;5049212;28;20371;-75
2023/05/12 12:31:48;;;;;;;3.33;2.63;;;;;;;18.33;70.21;101598.22;5052220;28;20056;-73
2023/05/12 12:34:13;;;;;;;10.57;2.65;;;;;;;18.43;70.32;101600.19;5031941;28;20056;-74
2023/05/12 12:36:39;;;;;;;3.33;2.47;;;;;;;18.65;74.14;101600.13;5030777;28;20037;-75
2023/05/12 12:39:05;;;;;;;4.00;2.75;;;;;;;18.69;66.86;101592.19;5031824;28;20022;-73
2023/05/12 12:41:31;;;;;;;6.25;2.40;;;;;;;18.74;67.79;101598.56;5030956;28;20033;-73
2023/05/12 12:43:56;;;;;;;4.22;2.28;;;;;;;18.77;65.83;101598.03;5038209;28;20142;-73
2023/05/12 12:46:27;;;;;;;5.35;2.17;;;;;;;18.92;66.84;101600.09;5051494;28;20086;-74
2023/05/12 12:48:52;;;;;;;9.90;2.60;;;;;;;19.06;66.37;101594.97;5051832;28;20037;-72
2023/05/12 12:51:17;;;;;;;3.90;2.35;;;;;;;19.20;63.75;101595.34;5051278;28;20271;-70
2023/05/12 12:53:44;;;;;;;3.80;2.75;;;;;;;19.28;62.33;101600.34;5054487;28;20471;-71
2023/05/12 12:56:10;;;;;;;6.53;2.80;;;;;;;19.28;62.47;101597.59;5054057;28;20033;-71
2023/05/12 12:58:35;;;;;;;4.13;2.80;;;;;;;19.37;61.90;101606.16;5050930;28;20123;-72
2023/05/12 13:01:00;;;;;;;5.72;2.70;;;;;;;19.50;60.57;101609.53;5049616;28;20060;-72
2023/05/12 13:03:26;;;;;;;5.38;2.70;;;;;;;19.53;61.42;101609.81;5053990;28;20037;-72
2023/05/12 13:05:51;;;;;;;5.75;2.30;;;;;;;19.44;59.59;101611.41;5055532;28;20045;-70
2023/05/12 13:08:16;;;;;;;2.58;2.35;;;;;;;19.39;58.98;101603.16;5052946;28;20028;-72
2023/05/12 13:10:42;;;;;;;3.13;2.50;;;;;;;19.32;59.42;101602.56;5054313;28;20472;-73
2023/05/12 13:13:10;;;;;;;4.78;2.67;;;;;;;19.35;60.95;101597.34;5051550;28;20470;-71
2023/05/12 13:15:36;;;;;;;2.80;2.35;;;;;;;19.36;60.40;101601.75;5040682;28;20390;-71
2023/05/12 13:18:01;;;;;;;2.42;2.22;;;;;;;19.50;62.38;101604.84;5051274;28;20037;-72
2023/05/12 13:20:27;;;;;;;4.70;2.40;;;;;;;19.57;61.97;101599.94;5053751;28;20108;-71
2023/05/12 13:22:52;;;;;;;5.93;2.67;;;;;;;19.71;61.53;101605.78;5055183;28;20025;-71
2023/05/12 13:25:18;;;;;;;5.47;2.58;;;;;;;19.86;60.54;101598.72;5052765;28;20039;-73
2023/05/12 13:27:43;;;;;;;3.55;2.40;;;;;;;20.11;60.92;101603.44;5054853;28;20029;-71
2023/05/12 13:30:09;;;;;;;5.50;2.70;;;;;;;20.27;57.20;101604.31;5038933;28;20034;-71
2023/05/12 13:32:35;;;;;;;4.85;2.80;;;;;;;20.42;58.93;101598.03;5054572;28;20135;-71
2023/05/12 13:35:00;;;;;;;4.43;3.10;;;;;;;20.52;57.23;101592.53;5047013;28;20520;-72
2023/05/12 13:37:26;;;;;;;6.57;2.50;;;;;;;20.44;58.47;101593.91;5035167;28;20041;-74
2023/05/12 13:39:52;;;;;;;5.85;2.55;;;;;;;20.30;57.61;101595.53;5048414;28;20465;-71
2023/05/12 13:42:17;;;;;;;9.10;2.30;;;;;;;;;;5053323;28;20033;-72
2023/05/12 13:44:42;;;;;;;4.97;2.47;;;;;;;19.99;57.73;101590.81;5054643;28;20108;-73
2023/05/12 13:47:08;;;;;;;4.68;2.38;;;;;;;19.77;60.21;101595.63;5053412;28;20055;-74
2023/05/12 13:49:34;;;;;;;3.85;2.63;;;;;;;19.63;60.00;101596.13;5053070;28;20037;-73
2023/05/12 13:52:00;;;;;;;6.38;3.50;;;;;;;19.52;61.19;101594.44;5053367;28;20464;-73
2023/05/12 13:54:26;;;;;;;5.55;2.85;;;;;;;19.63;61.25;101598.88;5051988;28;20048;-75
2023/05/12 13:56:51;;;;;;;4.68;3.13;;;;;;;19.89;61.28;101590.75;5054582;28;20033;-73
2023/05/12 13:59:17;;;;;;;5.80;3.53;;;;;;;20.16;59.86;101589.75;5052675;28;20028;-72
2023/05/12 14:01:43;;;;;;;6.60;3.17;;;;;;;20.40;59.93;101584.56;5048450;28;20044;-74
2023/05/12 14:04:09;;;;;;;5.88;3.13;;;;;;;20.66;59.79;101588.16;5053994;28;20519;-74
2023/05/12 14:06:34;;;;;;;3.47;3.00;;;;;;;20.71;59.26;101590.94;5054129;28;20468;-72
2023/05/12 14:08:59;;;;;;;6.65;3.08;;;;;;;20.67;59.96;101595.31;5053986;28;20040;-74
2023/05/12 14:11:25;;;;;;;3.35;2.83;;;;;;;20.62;60.84;101594.47;5052836;28;20025;-75
2023/05/12 14:13:50;;;;;;;4.72;3.08;;;;;;;20.71;60.18;101593.69;5054329;28;20456;-76
2023/05/12 14:16:16;;;;;;;5.72;3.00;;;;;;;20.76;58.17;101597.50;5038276;28;20399;-76
2023/05/12 14:18:41;;;;;;;5.70;2.90;;;;;;;20.76;59.27;101600.25;5048187;28;20130;-75
2023/05/12 14:21:07;;;;;;;3.65;3.10;;;;;;;20.62;61.33;101591.72;5048210;28;20448;-75
2023/05/12 14:23:32;;;;;;;4.07;3.10;;;;;;;20.75;59.15;101598.63;5040676;28;20434;-74
2023/05/12 14:25:58;;;;;;;6.03;3.10;;;;;;;20.95;57.58;101595.03;5051385;28;20025;-76
2023/05/12 14:28:23;;;;;;;4.07;2.88;;;;;;;21.07;57.23;101592.81;5049015;28;20029;-75
2023/05/12 14:30:49;;;;;;;2.75;2.50;;;;;;;21.30;55.41;101596.06;5054098;28;20053;-75
2023/05/12 14:33:14;;;;;;;2.97;2.67;;;;;;;21.28;53.80;101592.78;5053399;28;20386;-73
2023/05/12 14:35:40;;;;;;;5.78;2.85;;;;;;;21.10;53.85;101597.75;5053240;28;20029;-75
2023/05/12 14:38:05;;;;;;;3.00;2.50;;;;;;;21.21;54.57;101599.41;5052465;28;20475;-74
2023/05/12 14:40:30;;;;;;;4.10;2.40;;;;;;;21.34;54.48;101591.66;5053960;28;20067;-75
2023/05/12 14:42:56;;;;;;;2.97;2.38;;;;;;;21.48;52.21;101591.88;5043416;28;20029;-75
2023/05/12 14:45:24;;;;;;;4.00;2.63;;;;;;;21.33;53.38;101593.59;5044226;28;20064;-76
2023/05/12 14:47:49;;;;;;;4.60;2.90;;;;;;;21.06;53.32;101596.66;5040677;28;20017;-75
2023/05/12 14:50:15;;;;;;;7.53;2.70;;;;;;;20.78;57.56;101600.81;5045528;28;20086;-74
2023/05/12 14:52:40;;;;;;;8.25;3.03;;;;;;;20.66;55.75;101609.34;5045602;28;20549;-74
2023/05/12 14:55:10;;;;;;;3.75;2.70;;;;;;;20.55;56.29;101608.50;5039377;28;20435;-74
2023/05/12 14:57:39;;;;;;;4.68;3.00;;;;;;;20.41;55.30;101610.97;5048390;28;20053;-72
2023/05/12 15:00:07;;;;;;;5.18;2.88;;;;;;;20.28;56.28;101609.53;5051587;28;20033;-72
2023/05/12 15:02:35;;;;;;;5.10;2.92;;;;;;;20.24;55.22;101602.13;5049674;28;20407;-73
2023/05/12 15:05:00;;;;;;;3.85;2.45;;;;;;;20.23;57.78;101606.81;5047492;28;20041;-76
2023/05/12 15:07:25;;;;;;;5.60;3.13;;;;;;;20.19;57.31;101603.75;5051646;28;20104;-73
2023/05/12 15:09:51;;;;;;;3.92;2.90;;;;;;;20.15;56.53;101610.88;5052023;28;20467;-75
2023/05/12 15:12:16;;;;;;;5.38;2.60;;;;;;;;;;5052748;28;20029;-72
2023/05/12 15:14:41;;;;;;;6.93;3.30;;;;;;;20.10;57.44;101601.81;5052279;28;20643;-73
2023/05/12 15:17:07;;;;;;;3.28;2.80;;;;;;;20.20;56.05;101610.09;5051871;28;20758;-75
2023/05/12 15:19:32;;;;;;;7.70;3.00;;;;;;;20.25;54.30;101610.09;5051710;28;20551;-74
2023/05/12 15:21:58;;;;;;;3.10;2.80;;;;;;;20.20;52.91;101607.34;5051827;28;20104;-74
2023/05/12 15:24:24;;;;;;;3.20;2.90;;;;;;;20.29;52.95;101610.34;5052879;28;20116;-76
2023/05/12 15:26:50;;;;;;;5.35;3.60;;;;;;;20.32;53.72;101610.66;5051762;28;20115;-77
2023/05/12 15:29:15;;;;;;;6.45;3.40;;;;;;;20.31;55.07;101614.50;5051401;28;20032;-74
2023/05/12 15:31:43;;;;;;;5.78;3.15;;;;;;;20.26;55.11;101611.75;5047793;28;20068;-75
2023/05/12 15:34:09;;;;;;;4.97;3.17;;;;;;;20.17;55.00;101613.38;5051338;28;20509;-72
2023/05/12 15:36:34;;;;;;;7.35;3.30;;;;;;;20.16;59.12;101617.22;5050423;28;20028;-74
2023/05/12 15:39:01;;;;;;;6.30;3.35;;;;;;;20.12;55.06;101610.59;5049595;28;20551;-75
2023/05/12 15:41:27;;;;;;;6.75;3.80;;;;;;;20.05;56.90;101608.13;5046617;28;20033;-72
2023/05/12 15:43:52;;;;;;;6.15;3.42;;;;;;;19.99;55.04;101615.53;5051412;28;20090;-76
2023/05/12 15:46:17;;;;;;;5.65;3.22;;;;;;;19.94;56.96;101614.69;5049307;28;20097;-73
2023/05/12 15:48:43;;;;;;;4.32;2.78;;;;;;;19.85;58.45;101616.28;5049081;28;20043;-72
2023/05/12 15:51:08;;;;;;;7.03;3.17;;;;;;;19.96;59.36;101618.81;5046814;28;20063;-73
2023/05/12 15:53:33;;;;;;;6.78;3.70;;;;;;;20.37;55.98;101620.84;5044536;28;20048;-72
2023/05/12 15:56:03;;;;;;;7.15;3.60;;;;;;;20.86;55.88;101625.84;5050662;28;20025;-74
2023/05/12 15:58:28;;;;;;;7.30;3.25;;;;;;;21.16;55.50;101620.59;5040102;28;20037;-74
2023/05/12 16:00:54;;;;;;;5.10;3.53;;;;;;;21.05;54.75;101617.84;5050057;28;20044;-71
